Time;durP1;ratioP1;P1;durP2;ratioP2;P2;SDS_P1;SDS_P2;PMS_P1;PMS_P2;Temp;Humidity;BMP_temperature;BMP_pressure;BME280_temperature;BME280_humidity;BME280_pressure;Samples;Min_cycle;Max_cycle;Signal;HPM_P1;HPM_P2
2021/08/26 00:06:52;;;;;;;10.00;5.20;;;;;;;13.34;89.07;94167.71;1708217;84;21090;-53
2021/08/26 00:09:18;;;;;;;9.18;5.75;;;;;;;13.33;89.33;94160.66;1708446;84;21019;-53
2021/08/26 00:11:47;;;;;;;12.18;5.65;;;;;;;13.36;89.40;94157.55;1708178;84;21155;-53
2021/08/26 00:14:16;;;;;;;9.88;5.87;;;;;;;13.36;89.24;94158.32;1706037;82;20987;-53
2021/08/26 00:16:44;;;;;;;7.12;5.17;;;;;;;13.33;89.30;94152.38;1704179;83;21041;-53
2021/08/26 00:19:13;;;;;;;9.55;5.25;;;;;;;13.30;89.11;94152.56;1733200;82;21051;-54
2021/08/26 00:21:41;;;;;;;10.90;5.40;;;;;;;13.24;88.92;94151.72;1730606;82;21034;-53
2021/08/26 00:24:09;;;;;;;13.55;5.92;;;;;;;13.21;89.24;94145.75;1739663;82;21805;-53
2021/08/26 00:26:35;;;;;;;9.35;6.00;;;;;;;13.21;89.24;94142.98;1739849;82;20951;-53
2021/08/26 00:29:05;;;;;;;9.28;6.22;;;;;;;13.20;89.42;94135.94;1739610;82;21005;-53
2021/08/26 00:31:31;;;;;;;9.60;6.00;;;;;;;13.22;89.35;94132.86;1739856;82;21018;-53
2021/08/26 00:33:58;;;;;;;9.30;5.70;;;;;;;13.26;89.47;94132.67;1739951;82;20999;-53
2021/08/26 00:36:25;;;;;;;9.88;5.35;;;;;;;13.30;89.51;94130.47;1739823;82;21130;-53
2021/08/26 00:38:51;;;;;;;9.23;5.67;;;;;;;13.36;89.43;94132.68;1739895;82;21561;-53
2021/08/26 00:41:26;;;;;;;9.63;6.12;;;;;;;13.40;89.15;94137.38;1739552;82;21010;-53
2021/08/26 00:43:55;;;;;;;12.58;6.60;;;;;;;13.38;89.07;94140.64;1739890;82;21474;-53
2021/08/26 00:46:22;;;;;;;9.43;5.67;;;;;;;13.37;89.21;94138.34;1739864;82;20999;-53
2021/08/26 00:48:48;;;;;;;8.33;5.92;;;;;;;13.39;89.32;94137.25;1740519;82;21906;-54
2021/08/26 00:51:16;;;;;;;11.00;5.80;;;;;;;13.45;89.06;94132.58;1739653;82;21057;-54
2021/08/26 00:53:44;;;;;;;10.65;6.30;;;;;;;13.53;88.80;94134.47;1740246;82;21489;-54
2021/08/26 00:56:14;;;;;;;8.65;5.42;;;;;;;13.60;88.44;94129.91;1739618;82;21033;-53
2021/08/26 00:58:50;;;;;;;11.25;5.72;;;;;;;13.60;88.01;94126.41;1721289;82;21096;-53
2021/08/26 01:01:29;;;;;;;9.58;5.40;;;;;;;13.53;87.77;94123.41;1705769;84;21126;-53
2021/08/26 01:04:16;;;;;;;8.90;5.40;;;;;;;13.47;87.85;94123.19;1715919;82;21085;-53
2021/08/26 01:07:00;;;;;;;11.60;6.22;;;;;;;13.42;88.07;94130.78;1739990;82;21030;-52
2021/08/26 01:09:44;;;;;;;10.13;5.83;;;;;;;13.39;88.26;94126.97;1738340;82;21006;-53
2021/08/26 01:12:14;;;;;;;8.03;5.85;;;;;;;13.41;88.37;94116.83;1738883;82;20994;-53
2021/08/26 01:14:41;;;;;;;9.88;6.05;;;;;;;13.41;88.43;94126.50;1746552;81;21186;-53
2021/08/26 01:17:08;;;;;;;12.50;5.92;;;;;;;13.41;88.60;94116.20;1745026;81;21121;-53
2021/08/26 01:19:35;;;;;;;13.90;6.25;;;;;;;13.46;88.92;94111.36;1735124;82;21026;-53
2021/08/26 01:22:02;;;;;;;6.78;5.80;;;;;;;13.49;88.64;94115.17;1719934;81;20993;-54
2021/08/26 01:24:29;;;;;;;14.18;6.53;;;;;;;13.49;88.77;94114.54;1720182;83;21721;-53
2021/08/26 01:26:56;;;;;;;10.70;5.90;;;;;;;13.58;88.84;94112.28;1720159;83;21791;-54
2021/08/26 01:29:24;;;;;;;7.78;5.17;;;;;;;13.66;88.53;94109.27;1720172;83;21533;-55
2021/08/26 01:31:51;;;;;;;8.15;5.45;;;;;;;13.71;88.01;94106.58;1719945;83;21005;-54
2021/08/26 01:34:20;;;;;;;10.05;6.15;;;;;;;13.71;87.74;94112.11;1720278;83;21020;-54
2021/08/26 01:36:47;;;;;;;10.53;6.75;;;;;;;13.72;87.59;94117.00;1719960;83;21430;-54
2021/08/26 01:39:15;;;;;;;9.83;6.05;;;;;;;13.76;87.37;94109.27;1720015;83;22315;-54
2021/08/26 01:41:54;;;;;;;13.70;6.60;;;;;;;13.78;87.31;94110.95;1719914;83;20990;-54
2021/08/26 01:44:26;;;;;;;13.43;6.37;;;;;;;13.82;87.17;94102.56;1719895;83;21013;-53
2021/08/26 01:46:58;;;;;;;9.10;5.80;;;;;;;13.87;86.84;94098.36;1730647;81;21490;-53
2021/08/26 01:49:27;;;;;;;9.65;5.97;;;;;;;13.88;86.55;94102.64;1757433;81;20926;-54
2021/08/26 01:51:54;;;;;;;9.75;6.30;;;;;;;13.84;86.38;94104.22;1755623;81;21122;-54
2021/08/26 01:54:20;;;;;;;8.65;6.08;;;;;;;13.81;86.35;94097.53;1755950;81;21001;-54
2021/08/26 01:56:48;;;;;;;10.18;5.72;;;;;;;13.79;86.43;94094.50;1755730;81;21045;-54
2021/08/26 01:59:14;;;;;;;12.33;6.35;;;;;;;13.81;86.48;94096.16;1726232;81;21497;-55
2021/08/26 02:01:41;;;;;;;10.25;6.78;;;;;;;13.82;86.34;94092.14;1717963;83;21469;-54
2021/08/26 02:04:08;;;;;;;9.90;6.03;;;;;;;13.81;86.14;94094.77;1720043;83;21813;-54
2021/08/26 02:06:35;;;;;;;9.45;6.00;;;;;;;13.76;86.31;94083.00;1719779;83;21497;-53
2021/08/26 02:09:02;;;;;;;12.85;6.03;;;;;;;13.73;86.42;94086.13;1719958;83;21032;-54
2021/08/26 02:11:28;;;;;;;9.38;5.55;;;;;;;13.71;86.46;94082.31;1719946;83;21493;-56
2021/08/26 02:13:57;;;;;;;10.40;6.00;;;;;;;13.67;86.66;94079.00;1719926;81;20882;-53
2021/08/26 02:16:23;;;;;;;10.10;5.95;;;;;;;13.66;87.20;94071.31;1720208;83;21974;-54
2021/08/26 02:18:50;;;;;;;10.85;6.15;;;;;;;13.67;87.10;94070.70;1744148;82;21072;-54
2021/08/26 02:21:17;;;;;;;9.28;6.80;;;;;;;13.68;87.30;94069.46;1749717;82;21806;-54
2021/08/26 02:23:44;;;;;;;11.63;7.47;;;;;;;13.71;86.85;94080.93;1749492;82;21002;-52
2021/08/26 02:26:11;;;;;;;13.88;8.60;;;;;;;13.64;86.86;94074.44;1749803;82;21104;-52
2021/08/26 02:28:39;;;;;;;12.35;9.28;;;;;;;13.63;87.23;94074.30;1749885;82;21159;-52
2021/08/26 02:31:06;;;;;;;14.70;9.35;;;;;;;13.62;87.13;94076.92;1757615;81;21396;-53
2021/08/26 02:33:33;;;;;;;13.10;8.83;;;;;;;13.59;87.22;94079.28;1755909;81;21462;-52
2021/08/26 02:36:00;;;;;;;14.33;9.35;;;;;;;13.56;87.30;94073.31;1756044;81;20967;-53
2021/08/26 02:38:28;;;;;;;16.32;9.53;;;;;;;13.53;87.18;94068.14;1755629;81;21005;-53
2021/08/26 02:40:55;;;;;;;12.73;9.45;;;;;;;13.49;87.24;94068.20;1755575;81;21150;-53
2021/08/26 02:43:21;;;;;;;19.35;10.88;;;;;;;13.47;87.37;94062.39;1755485;81;21006;-53
2021/08/26 02:45:48;;;;;;;12.03;8.35;;;;;;;13.49;87.52;94064.05;1722466;83;20972;-53
2021/08/26 02:48:15;;;;;;;13.68;8.10;;;;;;;13.47;87.51;94074.83;1722342;83;21424;-52
2021/08/26 02:50:42;;;;;;;14.38;8.68;;;;;;;13.43;87.29;94071.52;1722139;83;21013;-53
2021/08/26 02:53:08;;;;;;;14.78;9.90;;;;;;;13.40;87.76;94071.08;1722386;83;21132;-52
2021/08/26 02:55:35;;;;;;;11.63;8.65;;;;;;;13.41;87.79;94067.09;1722424;83;21416;-53
2021/08/26 02:58:03;;;;;;;14.98;8.55;;;;;;;13.42;87.71;94071.37;1711680;81;20999;-53
2021/08/26 03:00:30;;;;;;;9.75;7.00;;;;;;;13.46;87.54;94076.08;1681874;85;21114;-54
2021/08/26 03:02:57;;;;;;;9.90;6.95;;;;;;;13.43;87.22;94077.79;1719456;83;21037;-54
2021/08/26 03:05:24;;;;;;;9.65;7.75;;;;;;;13.37;87.46;94074.80;1719762;83;21156;-54
2021/08/26 03:07:51;;;;;;;12.80;7.65;;;;;;;13.36;87.77;94076.05;1719962;83;21076;-54
2021/08/26 03:10:17;;;;;;;9.68;7.33;;;;;;;13.36;87.89;94073.28;1719922;83;21103;-54
2021/08/26 03:12:44;;;;;;;10.95;7.22;;;;;;;13.38;88.07;94075.72;1717640;81;21051;-54
2021/08/26 03:15:12;;;;;;;9.40;6.95;;;;;;;13.41;87.77;94074.00;1708075;83;21020;-53
2021/08/26 03:17:39;;;;;;;9.68;6.65;;;;;;;13.41;87.83;94069.86;1695634;84;21160;-54
2021/08/26 03:20:07;;;;;;;8.33;6.08;;;;;;;13.43;87.61;94071.52;1677768;84;21066;-54
2021/08/26 03:22:34;;;;;;;12.73;7.00;;;;;;;13.45;87.61;94076.68;1677528;85;21027;-54
2021/08/26 03:25:01;;;;;;;11.38;8.33;;;;;;;13.47;87.54;94072.06;1677306;85;21042;-54
2021/08/26 03:27:27;;;;;;;13.50;8.08;;;;;;;13.49;87.71;94070.97;1677678;84;20979;-54
2021/08/26 03:29:58;;;;;;;11.55;7.35;;;;;;;13.50;87.71;94073.86;1677587;85;21482;-54
2021/08/26 03:32:25;;;;;;;10.68;7.30;;;;;;;13.47;87.57;94071.43;1677318;84;21467;-54
2021/08/26 03:34:52;;;;;;;9.43;7.40;;;;;;;13.42;87.79;94076.91;1677766;84;20991;-54
2021/08/26 03:37:19;;;;;;;11.48;7.40;;;;;;;13.41;88.40;94076.77;1677462;84;21062;-54
2021/08/26 03:39:46;;;;;;;11.28;7.65;;;;;;;13.43;88.58;94078.42;1677711;85;21053;-54
2021/08/26 03:42:13;;;;;;;10.48;7.30;;;;;;;13.42;88.71;94081.05;1677463;85;21728;-54
2021/08/26 03:44:42;;;;;;;10.48;6.70;;;;;;;13.42;88.91;94071.37;1676463;84;21194;-55
2021/08/26 03:47:12;;;;;;;11.65;7.10;;;;;;;13.44;88.85;94074.42;1656055;85;21145;-54
2021/08/26 03:49:39;;;;;;;14.65;8.05;;;;;;;13.40;88.96;94078.75;1685916;85;21030;-53
2021/08/26 03:52:06;;;;;;;11.57;7.42;;;;;;;13.39;89.13;94081.98;1677407;84;21128;-54
2021/08/26 03:54:33;;;;;;;15.70;7.55;;;;;;;13.38;89.16;94083.23;1685338;83;21161;-53
2021/08/26 03:57:01;;;;;;;9.55;6.95;;;;;;;13.37;89.43;94094.14;1684230;83;21039;-54
2021/08/26 03:59:27;;;;;;;10.18;6.70;;;;;;;13.40;89.68;94092.57;1679781;83;21029;-54
2021/08/26 04:01:54;;;;;;;9.43;6.83;;;;;;;13.45;89.62;94089.75;1681950;84;21015;-53
2021/08/26 04:04:21;;;;;;;14.07;6.97;;;;;;;13.49;89.69;94094.45;1677501;85;20999;-53
2021/08/26 04:06:49;;;;;;;12.82;7.42;;;;;;;13.59;89.73;94097.24;1677806;85;21689;-54
2021/08/26 04:09:15;;;;;;;9.48;6.70;;;;;;;13.64;89.25;94093.78;1677688;84;21495;-53
2021/08/26 04:11:42;;;;;;;8.80;6.28;;;;;;;13.65;88.96;94096.05;1677602;85;21594;-53
2021/08/26 04:14:09;;;;;;;9.90;6.03;;;;;;;13.65;88.88;94102.97;1677454;85;20976;-53
2021/08/26 04:16:36;;;;;;;8.28;6.30;;;;;;;13.68;88.92;94097.10;1717071;83;21446;-53
2021/08/26 04:19:03;;;;;;;9.10;6.45;;;;;;;13.70;88.91;94092.63;1746966;81;21314;-53
2021/08/26 04:21:31;;;;;;;8.05;6.15;;;;;;;13.75;88.69;94089.77;1749919;82;20990;-53
2021/08/26 04:23:58;;;;;;;8.60;6.55;;;;;;;13.79;88.60;94093.11;1726784;82;20974;-53
2021/08/26 04:26:25;;;;;;;16.65;6.12;;;;;;;13.84;88.38;94096.56;1749871;82;21010;-53
2021/08/26 04:28:53;;;;;;;8.73;6.55;;;;;;;13.88;88.18;94099.27;1750014;82;21057;-53
2021/08/26 04:31:20;;;;;;;14.78;10.88;;;;;;;13.92;88.05;94096.28;1749850;82;21273;-54
2021/08/26 04:33:47;;;;;;;16.90;11.78;;;;;;;13.90;87.82;94099.55;1750128;82;21389;-53
2021/08/26 04:36:14;;;;;;;12.30;9.78;;;;;;;13.90;87.85;94096.78;1750265;82;21041;-53
2021/08/26 04:38:41;;;;;;;12.00;8.30;;;;;;;13.96;87.53;94103.77;1755244;81;21040;-53
2021/08/26 04:41:07;;;;;;;10.98;7.55;;;;;;;14.02;87.26;94097.67;1755530;81;20997;-54
2021/08/26 04:43:34;;;;;;;8.43;6.80;;;;;;;14.10;87.14;94098.77;1755742;81;21334;-53
2021/08/26 04:46:02;;;;;;;11.48;6.45;;;;;;;14.18;86.81;94093.73;1755910;81;21512;-53
2021/08/26 04:48:30;;;;;;;7.47;6.08;;;;;;;14.21;86.55;94096.17;1755755;80;21073;-54
2021/08/26 04:50:57;;;;;;;9.50;5.83;;;;;;;14.20;86.34;94094.65;1756085;81;20962;-55
2021/08/26 04:53:24;;;;;;;9.05;6.47;;;;;;;14.23;86.20;94093.67;1755659;81;20997;-54
2021/08/26 04:55:51;;;;;;;8.30;6.17;;;;;;;14.28;85.98;94092.97;1755698;81;21124;-54
2021/08/26 04:58:18;;;;;;;7.87;6.08;;;;;;;14.33;85.82;94090.91;1741163;81;21010;-54
2021/08/26 05:00:45;;;;;;;18.30;6.80;;;;;;;14.38;85.99;94094.34;1720069;83;21005;-54
2021/08/26 05:03:12;;;;;;;11.60;7.30;;;;;;;14.44;86.04;94093.17;1719920;81;21063;-54
2021/08/26 05:05:39;;;;;;;8.65;7.25;;;;;;;14.51;85.64;94090.73;1719736;83;21540;-53
2021/08/26 05:08:06;;;;;;;13.20;7.53;;;;;;;14.55;85.35;94087.12;1719844;83;21143;-54
2021/08/26 05:10:33;;;;;;;10.43;7.53;;;;;;;14.58;85.27;94083.98;1720060;83;21080;-54
2021/08/26 05:12:59;;;;;;;9.90;6.47;;;;;;;14.64;85.11;94086.20;1719914;83;21430;-54
2021/08/26 05:15:26;;;;;;;10.00;6.83;;;;;;;14.66;84.45;94083.05;1717010;81;21450;-53
2021/08/26 05:17:53;;;;;;;9.00;6.28;;;;;;;14.65;84.13;94076.00;1709760;83;20998;-54
2021/08/26 05:20:20;;;;;;;6.53;4.33;;;;;;;14.64;83.60;94064.05;1709020;82;21394;-53
2021/08/26 05:22:47;;;;;;;7.15;4.28;;;;;;;14.58;83.00;94061.22;1695345;83;20990;-54
2021/08/26 05:25:13;;;;;;;10.45;5.45;;;;;;;14.52;82.62;94060.42;1672806;83;21096;-54
2021/08/26 05:27:40;;;;;;;9.13;6.20;;;;;;;14.47;82.66;94059.72;1654851;85;21116;-55
2021/08/26 05:30:08;;;;;;;10.65;6.20;;;;;;;14.45;82.64;94066.37;1712391;83;21058;-54
2021/08/26 05:32:34;;;;;;;12.28;5.85;;;;;;;14.43;82.59;94061.95;1694061;83;21119;-55
2021/08/26 05:35:01;;;;;;;6.67;5.00;;;;;;;14.44;82.71;94063.47;1646931;84;21102;-55
2021/08/26 05:37:28;;;;;;;7.97;5.30;;;;;;;14.50;82.52;94062.92;1640681;85;21061;-57
2021/08/26 05:39:56;;;;;;;6.75;5.47;;;;;;;14.59;82.35;94053.05;1632321;86;21085;-54
2021/08/26 05:42:23;;;;;;;6.22;5.60;;;;;;;14.62;82.41;94050.69;1663878;84;21081;-54
2021/08/26 05:44:52;;;;;;;6.97;4.40;;;;;;;14.68;82.02;94057.66;1684243;84;21038;-55
2021/08/26 05:47:19;;;;;;;12.43;5.60;;;;;;;14.69;81.49;94051.65;1688080;83;21150;-56
2021/08/26 05:49:45;;;;;;;5.50;4.47;;;;;;;14.75;81.41;94047.52;1710431;81;20997;-57
2021/08/26 05:52:12;;;;;;;5.97;4.75;;;;;;;14.76;81.39;94049.81;1718769;81;21095;-56
2021/08/26 05:54:39;;;;;;;5.55;4.45;;;;;;;14.75;81.20;94049.67;1685892;83;21155;-56
2021/08/26 05:57:06;;;;;;;7.50;4.55;;;;;;;14.80;81.13;94054.50;1710564;82;21532;-56
2021/08/26 05:59:33;;;;;;;9.88;5.12;;;;;;;14.84;81.15;94051.52;1692782;83;21080;-58
2021/08/26 06:02:01;;;;;;;11.18;5.97;;;;;;;14.91;81.20;94054.59;1680388;84;21047;-55
2021/08/26 06:04:28;;;;;;;9.68;6.12;;;;;;;14.97;80.87;94047.73;1679429;83;21030;-56
2021/08/26 06:06:55;;;;;;;11.38;4.80;;;;;;;15.00;81.21;94044.71;1718224;81;21210;-56
2021/08/26 06:09:22;;;;;;;12.78;6.12;;;;;;;15.08;81.34;94046.41;1681311;83;22435;-52
2021/08/26 06:11:50;;;;;;;9.48;4.60;;;;;;;15.15;80.76;94045.33;1671118;83;21086;-52
2021/08/26 06:14:18;;;;;;;6.42;4.53;;;;;;;15.16;80.73;94044.08;1661060;83;21496;-55
2021/08/26 06:16:46;;;;;;;5.90;4.55;;;;;;;15.17;80.74;94044.85;1733723;81;21090;-54
2021/08/26 06:19:13;;;;;;;10.95;8.33;;;;;;;15.24;80.73;94046.55;1704372;81;21400;-55
2021/08/26 06:21:41;;;;;;;12.58;6.53;;;;;;;15.29;81.03;94048.62;1689468;81;22316;-53
2021/08/26 06:24:08;;;;;;;13.75;6.12;;;;;;;15.29;81.03;94044.46;1708701;82;20975;-56
2021/08/26 06:26:37;;;;;;;10.48;6.50;;;;;;;15.32;80.56;94046.88;1708447;82;21021;-55
2021/08/26 06:29:04;;;;;;;6.33;4.90;;;;;;;15.37;80.25;94039.96;1740155;81;21127;-54
2021/08/26 06:31:31;;;;;;;11.95;6.15;;;;;;;15.42;79.87;94039.26;1722552;81;21538;-51
2021/08/26 06:33:58;;;;;;;14.10;5.85;;;;;;;15.43;79.90;94042.16;1709678;82;21764;-55
2021/08/26 06:36:33;;;;;;;11.03;5.67;;;;;;;15.46;79.50;94045.32;1710472;82;21015;-55
2021/08/26 06:39:02;;;;;;;15.15;5.87;;;;;;;15.53;79.37;94041.34;1670432;84;21067;-56
2021/08/26 06:41:30;;;;;;;15.58;6.25;;;;;;;15.56;79.03;94040.34;1625665;86;21090;-52
2021/08/26 06:43:58;;;;;;;8.30;5.03;;;;;;;15.59;79.28;94042.89;1652770;85;21078;-54
2021/08/26 06:46:24;;;;;;;7.78;4.58;;;;;;;15.70;79.22;94039.41;1685205;83;21118;-52
2021/08/26 06:48:54;;;;;;;9.43;4.72;;;;;;;15.80;78.32;94037.31;1706675;82;21049;-50
2021/08/26 06:51:21;;;;;;;19.48;10.58;;;;;;;15.86;78.06;94032.55;1687491;82;21076;-54
2021/08/26 06:53:48;;;;;;;4.83;4.28;;;;;;;15.98;77.87;94045.22;1685326;82;21135;-52
2021/08/26 06:56:15;;;;;;;7.78;6.58;;;;;;;16.08;77.38;94030.49;1678549;84;21085;-53
2021/08/26 06:58:44;;;;;;;22.73;8.30;;;;;;;16.18;76.99;94039.48;1654596;83;41222;-54
2021/08/26 07:01:11;;;;;;;15.18;3.83;;;;;;;16.25;76.68;94042.41;1677235;83;21110;-56
2021/08/26 07:03:38;;;;;;;15.68;6.83;;;;;;;16.31;76.25;94048.08;1672702;84;21462;-54
2021/08/26 07:06:05;;;;;;;27.35;6.95;;;;;;;16.35;75.77;94038.94;1693627;82;21022;-54
2021/08/26 07:08:32;;;;;;;4.92;4.05;;;;;;;16.41;75.56;94038.30;1683848;83;21075;-56
2021/08/26 07:10:59;;;;;;;17.75;5.05;;;;;;;16.50;75.27;94040.84;1674406;84;21173;-57
2021/08/26 07:13:26;;;;;;;6.62;5.70;;;;;;;16.58;75.17;94040.48;1657396;84;21165;-56
2021/08/26 07:15:56;;;;;;;9.75;3.95;;;;;;;16.61;74.64;94044.41;1630182;86;21010;-59
2021/08/26 07:18:24;;;;;;;7.22;5.58;;;;;;;16.68;74.56;94039.74;1663737;84;21007;-55
2021/08/26 07:20:51;;;;;;;8.65;4.28;;;;;;;16.76;74.57;94035.84;1673271;84;21058;-54
2021/08/26 07:23:19;;;;;;;4.20;3.05;;;;;;;16.85;74.06;94037.74;1654646;85;21156;-53
2021/08/26 07:25:46;;;;;;;3.83;3.10;;;;;;;16.95;73.12;94032.05;1702335;83;21585;-55
2021/08/26 07:28:13;;;;;;;4.35;3.58;;;;;;;17.03;73.08;94029.52;1709981;82;21585;-53
2021/08/26 07:30:40;;;;;;;7.05;3.45;;;;;;;17.09;72.85;94039.38;1701522;84;21438;-55
2021/08/26 07:33:06;;;;;;;3.80;3.30;;;;;;;17.13;72.31;94040.52;1705211;84;20954;-54
2021/08/26 07:35:33;;;;;;;7.75;3.67;;;;;;;17.23;72.94;94034.81;1704842;84;21122;-59
2021/08/26 07:38:00;;;;;;;6.20;3.62;;;;;;;17.34;72.69;94036.23;1712465;83;21546;-57
2021/08/26 07:40:27;;;;;;;3.50;2.65;;;;;;;17.47;72.29;94035.09;1704283;82;21073;-57
2021/08/26 07:42:54;;;;;;;4.47;2.85;;;;;;;17.60;71.49;94033.91;1706081;82;21350;-52
2021/08/26 07:45:21;;;;;;;4.65;3.00;;;;;;;17.70;70.94;94030.98;1698606;83;21027;-54
2021/08/26 07:47:47;;;;;;;10.80;3.55;;;;;;;17.80;70.77;94033.63;1705326;82;21103;-57
2021/08/26 07:50:15;;;;;;;5.90;2.75;;;;;;;17.91;70.26;94024.60;1698664;82;21139;-55
2021/08/26 07:52:42;;;;;;;6.87;3.35;;;;;;;18.04;69.59;94026.17;1700430;81;21014;-56
2021/08/26 07:55:10;;;;;;;14.90;3.58;;;;;;;18.23;68.90;94019.52;1700693;84;21162;-54
2021/08/26 07:57:37;;;;;;;4.53;2.70;;;;;;;18.46;68.48;94022.98;1703449;82;21019;-59
2021/08/26 08:00:06;;;;;;;4.28;2.20;;;;;;;18.63;66.97;94025.03;1712277;81;21128;-55
2021/08/26 08:02:33;;;;;;;5.12;2.35;;;;;;;18.68;65.33;94020.05;1708698;81;20995;-54
2021/08/26 08:05:07;;;;;;;3.70;2.65;;;;;;;18.64;64.54;94020.32;1702840;82;20966;-58
2021/08/26 08:07:38;;;;;;;4.17;2.55;;;;;;;18.58;64.78;94018.22;1705430;82;21064;-59
2021/08/26 08:10:10;;;;;;;;;;;;;;;18.54;64.75;94016.35;1706918;83;21142;-58
2021/08/26 08:12:40;;;;;;;4.25;3.15;;;;;;;18.58;64.90;94014.66;1703024;83;20253;-55
2021/08/26 08:15:09;;;;;;;9.45;3.20;;;;;;;18.62;64.66;94010.34;1672414;85;21078;-57
2021/08/26 08:17:37;;;;;;;3.52;2.77;;;;;;;18.67;64.43;94006.75;1638502;85;21101;-56
2021/08/26 08:20:06;;;;;;;3.27;2.58;;;;;;;18.76;64.69;94012.02;1680979;85;21430;-56
2021/08/26 08:22:33;;;;;;;12.50;3.60;;;;;;;18.81;64.56;94009.82;1655533;86;21026;-56
2021/08/26 08:24:59;;;;;;;8.45;4.62;;;;;;;18.89;64.00;94010.79;1620377;86;21139;-55
2021/08/26 08:27:26;;;;;;;4.05;2.72;;;;;;;18.88;63.49;94006.49;1685107;83;21128;-53
2021/08/26 08:29:55;;;;;;;4.33;3.15;;;;;;;18.81;62.98;94009.08;1689224;84;21090;-52
2021/08/26 08:32:22;;;;;;;4.90;3.30;;;;;;;18.71;63.36;94011.43;1671474;85;21034;-57
2021/08/26 08:34:49;;;;;;;5.15;3.20;;;;;;;18.66;63.77;94006.62;1712052;83;21019;-58
2021/08/26 08:37:16;;;;;;;13.85;4.00;;;;;;;18.66;62.77;94005.89;1698342;83;21114;-55
2021/08/26 08:39:43;;;;;;;9.60;3.67;;;;;;;18.71;62.81;94005.86;1688988;82;21045;-57
2021/08/26 08:42:09;;;;;;;5.42;3.45;;;;;;;18.81;62.46;94004.25;1686284;82;21131;-57
2021/08/26 08:44:38;;;;;;;5.17;3.15;;;;;;;19.03;62.15;93998.50;1689136;83;20955;-56
2021/08/26 08:47:06;;;;;;;14.80;4.42;;;;;;;19.25;61.47;94003.16;1673255;85;21194;-56
2021/08/26 08:49:36;;;;;;;5.58;3.98;;;;;;;19.46;60.12;93995.23;1673086;83;21191;-56
2021/08/26 08:52:03;;;;;;;6.55;4.25;;;;;;;19.59;58.94;93991.14;1676712;83;21126;-58
2021/08/26 08:54:30;;;;;;;12.75;7.62;;;;;;;19.72;58.45;93987.73;1679045;83;22404;-57
2021/08/26 08:56:57;;;;;;;6.92;5.50;;;;;;;19.81;57.96;93993.72;1674324;84;21116;-58
2021/08/26 08:59:31;;;;;;;13.48;5.00;;;;;;;19.88;57.32;93982.58;1679976;82;21585;-57
2021/08/26 09:01:57;;;;;;;5.70;4.30;;;;;;;19.96;56.59;93981.47;1679905;83;21825;-56
2021/08/26 09:04:26;;;;;;;7.92;3.80;;;;;;;20.01;56.27;93986.87;1673412;83;21131;-59
2021/08/26 09:06:56;;;;;;;6.78;3.30;;;;;;;20.01;57.25;93988.27;1689042;83;21134;-57
2021/08/26 09:09:25;;;;;;;6.90;4.50;;;;;;;19.96;56.48;93985.66;1706359;84;21584;-54
2021/08/26 09:11:54;;;;;;;13.95;4.08;;;;;;;19.88;55.33;93982.58;1698431;83;21152;-57
2021/08/26 09:14:27;;;;;;;6.83;3.83;;;;;;;19.85;55.35;93983.63;1665156;84;21305;-55
2021/08/26 09:16:58;;;;;;;10.35;5.35;;;;;;;19.82;56.15;93978.48;1698491;82;22136;-55
2021/08/26 09:19:33;;;;;;;13.35;4.83;;;;;;;19.91;56.86;93981.55;1690611;82;21073;-57
2021/08/26 09:22:09;;;;;;;11.73;4.47;;;;;;;20.01;53.19;93985.48;1682062;83;20992;-57
2021/08/26 09:24:55;;;;;;;12.23;4.08;;;;;;;20.15;52.55;93985.84;1707210;83;21096;-57
2021/08/26 09:27:34;;;;;;;6.40;3.83;;;;;;;20.34;51.24;93975.42;1686603;84;21122;-54
2021/08/26 09:30:06;;;;;;;18.35;5.45;;;;;;;20.60;49.92;93981.80;1695176;82;21528;-54
2021/08/26 09:32:40;;;;;;;;;;;;;;;20.71;49.54;93970.46;1685335;83;21630;-54
2021/08/26 09:35:20;;;;;;;8.13;3.47;;;;;;;20.65;48.19;93981.72;1677001;84;20271;-55
2021/08/26 09:37:56;;;;;;;7.92;3.70;;;;;;;20.56;48.65;93967.38;1685154;84;21124;-56
2021/08/26 09:40:33;;;;;;;10.25;4.28;;;;;;;20.56;48.70;93970.17;1688485;83;21075;-57
2021/08/26 09:43:06;;;;;;;11.63;4.10;;;;;;;20.53;47.14;93980.36;1657397;84;21173;-59
2021/08/26 09:45:37;;;;;;;14.20;4.53;;;;;;;20.39;47.43;93969.00;1682838;83;21061;-56
2021/08/26 09:48:13;;;;;;;13.28;4.17;;;;;;;20.32;47.80;93966.05;1684432;83;21122;-55
2021/08/26 09:50:47;;;;;;;8.28;4.10;;;;;;;20.48;48.78;93972.05;1677951;83;21419;-55
2021/08/26 09:53:17;;;;;;;6.67;3.92;;;;;;;20.81;48.29;93967.38;1652739;85;21905;-57
2021/08/26 09:56:04;;;;;;;5.50;3.90;;;;;;;21.03;46.20;93967.05;1679168;83;21109;-58
2021/08/26 09:58:33;;;;;;;9.18;4.58;;;;;;;21.02;46.88;93968.33;1689735;83;21109;-56
2021/08/26 10:01:17;;;;;;;5.20;3.72;;;;;;;20.97;46.96;93970.58;1661760;83;21050;-54
2021/08/26 10:03:44;;;;;;;8.93;5.42;;;;;;;20.91;46.15;93972.72;1677867;83;21509;-56
2021/08/26 10:06:11;;;;;;;9.90;4.72;;;;;;;20.75;47.48;93979.30;1683140;83;21145;-55
2021/08/26 10:08:43;;;;;;;12.03;5.67;;;;;;;20.75;49.00;93981.43;1684716;83;21050;-55
2021/08/26 10:11:11;;;;;;;6.00;4.35;;;;;;;20.85;49.43;93981.82;1679548;84;21124;-56
2021/08/26 10:13:38;;;;;;;7.85;4.75;;;;;;;20.89;49.14;93983.03;1673938;85;21655;-54
2021/08/26 10:16:05;;;;;;;8.93;4.22;;;;;;;20.86;48.67;93981.30;1653648;85;21150;-55
2021/08/26 10:18:34;;;;;;;6.33;4.25;;;;;;;20.70;48.95;93994.12;1712200;81;21091;-55
2021/08/26 10:21:01;;;;;;;6.30;4.15;;;;;;;20.44;49.24;93984.19;1717478;82;21039;-55
2021/08/26 10:23:28;;;;;;;11.60;4.92;;;;;;;20.26;50.02;93989.89;1694684;83;21123;-56
2021/08/26 10:26:05;;;;;;;4.85;4.12;;;;;;;20.18;49.98;93995.95;1653697;86;21022;-58
2021/08/26 10:28:39;;;;;;;7.40;3.72;;;;;;;20.10;49.08;93995.67;1629194;83;21759;-55
2021/08/26 10:31:29;;;;;;;10.38;5.37;;;;;;;19.98;49.44;93991.49;1663977;85;21739;-59
2021/08/26 10:34:23;;;;;;;7.33;4.65;;;;;;;19.89;49.64;93994.63;1656701;86;21152;-56
2021/08/26 10:37:01;;;;;;;9.45;6.78;;;;;;;19.89;49.49;93994.63;1667149;83;21073;-56
2021/08/26 10:39:36;;;;;;;15.05;5.28;;;;;;;19.92;49.63;93990.78;1703774;83;21099;-55
2021/08/26 10:42:28;;;;;;;9.10;5.17;;;;;;;19.96;49.63;93988.44;1707423;83;21175;-55
2021/08/26 10:45:10;;;;;;;7.92;5.37;;;;;;;20.02;49.19;93986.39;1685186;83;21373;-55
2021/08/26 10:47:53;;;;;;;10.40;4.30;;;;;;;20.10;49.52;93987.30;1709268;83;20929;-56
2021/08/26 10:50:28;;;;;;;9.25;4.40;;;;;;;20.16;48.44;93993.58;1687984;84;21028;-55
2021/08/26 10:53:04;;;;;;;17.30;5.42;;;;;;;20.18;49.00;93988.23;1688836;83;21049;-56
2021/08/26 10:55:43;;;;;;;5.97;3.65;;;;;;;20.21;47.88;93991.36;1688881;84;21001;-57
2021/08/26 10:58:33;;;;;;;16.87;4.80;;;;;;;20.18;47.71;93988.23;1727950;80;21841;-56
2021/08/26 11:01:01;;;;;;;16.37;5.53;;;;;;;20.14;48.10;93994.10;1753243;81;21063;-57
2021/08/26 11:06:19;;;;;;;10.85;3.77;;;;;;;20.15;47.10;93985.06;1685999;83;21565;-57
2021/08/26 11:08:53;;;;;;;11.15;4.65;;;;;;;20.19;47.16;93993.27;1655309;85;21169;-57
2021/08/26 11:11:31;;;;;;;6.75;4.33;;;;;;;20.20;47.15;93986.39;1715803;81;21145;-56
2021/08/26 11:14:22;;;;;;;11.68;5.03;;;;;;;20.26;47.64;93994.08;1711526;83;21074;-57
2021/08/26 11:16:52;;;;;;;8.28;3.70;;;;;;;20.44;46.60;93980.76;1714494;81;21069;-57
2021/08/26 11:19:27;;;;;;;6.70;4.47;;;;;;;20.72;45.89;93979.70;1754056;81;21044;-57
2021/08/26 11:21:59;;;;;;;5.60;3.65;;;;;;;20.98;45.06;93983.28;1724853;81;21544;-57
2021/08/26 11:24:32;;;;;;;10.38;4.20;;;;;;;21.28;44.83;93985.20;1725294;83;21136;-55
2021/08/26 11:27:19;;;;;;;6.10;3.62;;;;;;;21.59;43.56;93978.78;1726760;81;21018;-55
2021/08/26 11:29:46;;;;;;;9.48;3.58;;;;;;;21.96;42.95;93975.81;1737975;81;21554;-57
2021/08/26 11:32:14;;;;;;;5.53;3.85;;;;;;;22.48;42.73;93968.88;1728568;80;21152;-54
2021/08/26 11:34:48;;;;;;;11.05;4.20;;;;;;;22.78;41.25;93966.42;1725635;82;21027;-58
2021/08/26 11:37:43;;;;;;;5.30;3.77;;;;;;;23.05;40.50;93968.47;1699121;83;21469;-58
2021/08/26 11:40:13;;;;;;;7.28;3.72;;;;;;;23.14;40.04;93969.41;1734104;81;21252;-55
2021/08/26 11:42:46;;;;;;;9.13;4.20;;;;;;;23.07;39.99;93972.25;1720892;82;21045;-54
2021/08/26 11:45:28;;;;;;;6.60;4.12;;;;;;;23.44;40.35;93974.67;1729413;82;21530;-56
2021/08/26 11:48:05;;;;;;;7.47;3.83;;;;;;;23.93;38.45;93971.20;1732481;81;21024;-55